sensor_id;sensor_type;location;lat;lon;timestamp;P1;P2;P0
72509;PMS5003;60532;56.114;40.350;2022-07-12T00:02:19;13.67;13.67;7.67
72509;PMS5003;60532;56.114;40.350;2022-07-12T00:07:19;15.00;15.00;10.00
72509;PMS5003;60532;56.114;40.350;2022-07-12T00:12:20;14.67;13.33;9.67
72509;PMS5003;60532;56.114;40.350;2022-07-12T00:17:21;12.33;12.33;10.33
72509;PMS5003;60532;56.114;40.350;2022-07-12T00:22:21;16.00;16.00;10.00
72509;PMS5003;60532;56.114;40.350;2022-07-12T00:27:22;18.75;18.75;12.50
72509;PMS5003;60532;56.114;40.350;2022-07-12T00:32:23;17.00;17.00;10.67
72509;PMS5003;60532;56.114;40.350;2022-07-12T00:37:23;19.00;17.33;12.00
72509;PMS5003;60532;56.114;40.350;2022-07-12T00:42:25;19.50;18.50;13.00
72509;PMS5003;60532;56.114;40.350;2022-07-12T00:47:33;19.00;18.50;11.25
72509;PMS5003;60532;56.114;40.350;2022-07-12T00:52:37;21.50;20.25;11.50
72509;PMS5003;60532;56.114;40.350;2022-07-12T00:57:38;20.33;20.33;11.67
72509;PMS5003;60532;56.114;40.350;2022-07-12T01:02:40;18.00;17.50;11.25
72509;PMS5003;60532;56.114;40.350;2022-07-12T01:07:40;23.00;21.67;12.67
72509;PMS5003;60532;56.114;40.350;2022-07-12T01:12:41;17.67;16.33;9.00
72509;PMS5003;60532;56.114;40.350;2022-07-12T01:17:43;20.00;19.00;11.75
72509;PMS5003;60532;56.114;40.350;2022-07-12T01:22:57;23.00;23.00;14.60
72509;PMS5003;60532;56.114;40.350;2022-07-12T01:27:58;20.60;20.60;12.80
72509;PMS5003;60532;56.114;40.350;2022-07-12T01:32:59;17.67;17.67;10.67
72509;PMS5003;60532;56.114;40.350;2022-07-12T01:38:00;24.60;22.60;14.60
72509;PMS5003;60532;56.114;40.350;2022-07-12T01:43:01;19.50;18.75;13.50
72509;PMS5003;60532;56.114;40.350;2022-07-12T01:48:03;24.00;23.20;15.40
72509;PMS5003;60532;56.114;40.350;2022-07-12T01:53:05;20.00;19.50;12.25
72509;PMS5003;60532;56.114;40.350;2022-07-12T01:58:05;19.50;19.50;12.00
72509;PMS5003;60532;56.114;40.350;2022-07-12T02:03:06;20.00;20.00;12.60
72509;PMS5003;60532;56.114;40.350;2022-07-12T02:08:07;21.67;19.67;12.00
72509;PMS5003;60532;56.114;40.350;2022-07-12T02:13:08;21.00;21.00;13.50
72509;PMS5003;60532;56.114;40.350;2022-07-12T02:18:09;22.00;22.00;14.20
72509;PMS5003;60532;56.114;40.350;2022-07-12T02:23:09;22.00;21.00;12.00
72509;PMS5003;60532;56.114;40.350;2022-07-12T02:28:10;23.00;21.00;14.33
72509;PMS5003;60532;56.114;40.350;2022-07-12T02:33:10;20.67;20.67;12.67
72509;PMS5003;60532;56.114;40.350;2022-07-12T02:38:11;19.67;19.67;12.67
72509;PMS5003;60532;56.114;40.350;2022-07-12T02:43:12;20.00;18.67;13.67
72509;PMS5003;60532;56.114;40.350;2022-07-12T02:48:12;25.67;23.00;15.00
72509;PMS5003;60532;56.114;40.350;2022-07-12T02:53:13;19.00;18.33;12.33
72509;PMS5003;60532;56.114;40.350;2022-07-12T02:58:14;23.50;23.50;16.25
72509;PMS5003;60532;56.114;40.350;2022-07-12T03:03:15;20.33;20.33;13.33
72509;PMS5003;60532;56.114;40.350;2022-07-12T03:08:15;21.50;20.50;13.00
72509;PMS5003;60532;56.114;40.350;2022-07-12T03:13:16;22.00;20.25;14.00
72509;PMS5003;60532;56.114;40.350;2022-07-12T03:18:17;19.33;19.33;13.33
72509;PMS5003;60532;56.114;40.350;2022-07-12T03:23:18;23.00;20.25;14.50
72509;PMS5003;60532;56.114;40.350;2022-07-12T03:28:18;21.75;21.50;13.75
72509;PMS5003;60532;56.114;40.350;2022-07-12T03:33:19;20.33;20.33;11.00
72509;PMS5003;60532;56.114;40.350;2022-07-12T03:38:19;19.67;19.67;14.33
72509;PMS5003;60532;56.114;40.350;2022-07-12T03:43:20;18.75;18.00;12.25
72509;PMS5003;60532;56.114;40.350;2022-07-12T03:48:21;17.40;16.60;13.20
72509;PMS5003;60532;56.114;40.350;2022-07-12T03:53:22;19.33;19.33;11.67
72509;PMS5003;60532;56.114;40.350;2022-07-12T03:58:23;20.25;18.75;11.00
72509;PMS5003;60532;56.114;40.350;2022-07-12T04:03:23;19.67;19.67;12.00
72509;PMS5003;60532;56.114;40.350;2022-07-12T04:08:24;21.67;19.00;12.67
72509;PMS5003;60532;56.114;40.350;2022-07-12T04:13:25;17.67;16.67;9.67
72509;PMS5003;60532;56.114;40.350;2022-07-12T04:18:25;20.00;20.00;11.00
72509;PMS5003;60532;56.114;40.350;2022-07-12T04:23:26;19.00;18.50;12.75
72509;PMS5003;60532;56.114;40.350;2022-07-12T04:28:27;21.50;21.50;13.00
72509;PMS5003;60532;56.114;40.350;2022-07-12T04:33:27;19.25;19.00;13.75
72509;PMS5003;60532;56.114;40.350;2022-07-12T04:38:28;21.25;20.25;13.50
72509;PMS5003;60532;56.114;40.350;2022-07-12T04:43:29;21.75;20.50;11.75
72509;PMS5003;60532;56.114;40.350;2022-07-12T04:48:29;19.67;19.67;11.67
72509;PMS5003;60532;56.114;40.350;2022-07-12T04:53:30;15.50;15.50;9.50
72509;PMS5003;60532;56.114;40.350;2022-07-12T04:58:31;23.50;23.50;13.50
72509;PMS5003;60532;56.114;40.350;2022-07-12T05:03:31;21.75;21.50;14.50
72509;PMS5003;60532;56.114;40.350;2022-07-12T05:08:32;19.00;18.50;12.00
72509;PMS5003;60532;56.114;40.350;2022-07-12T05:13:33;17.75;17.75;11.50
72509;PMS5003;60532;56.114;40.350;2022-07-12T05:18:35;20.75;20.50;14.75
72509;PMS5003;60532;56.114;40.350;2022-07-12T05:23:36;20.75;20.75;12.75
72509;PMS5003;60532;56.114;40.350;2022-07-12T05:28:36;23.00;21.00;13.00
72509;PMS5003;60532;56.114;40.350;2022-07-12T05:33:37;21.00;19.00;9.50
72509;PMS5003;60532;56.114;40.350;2022-07-12T05:38:37;20.33;20.33;12.67
72509;PMS5003;60532;56.114;40.350;2022-07-12T05:43:38;22.00;22.00;12.00
72509;PMS5003;60532;56.114;40.350;2022-07-12T05:48:39;21.67;20.67;11.67
72509;PMS5003;60532;56.114;40.350;2022-07-12T05:53:39;19.33;19.33;13.00
72509;PMS5003;60532;56.114;40.350;2022-07-12T05:58:40;21.00;20.67;11.67
72509;PMS5003;60532;56.114;40.350;2022-07-12T06:03:41;19.00;19.00;12.00
72509;PMS5003;60532;56.114;40.350;2022-07-12T06:08:41;20.33;19.67;12.33
72509;PMS5003;60532;56.114;40.350;2022-07-12T06:13:42;23.00;22.33;12.00
72509;PMS5003;60532;56.114;40.350;2022-07-12T06:18:42;22.00;20.67;13.33
72509;PMS5003;60532;56.114;40.350;2022-07-12T06:23:43;20.00;20.00;13.33
72509;PMS5003;60532;56.114;40.350;2022-07-12T06:28:44;21.33;20.00;13.33
72509;PMS5003;60532;56.114;40.350;2022-07-12T06:33:45;19.75;19.75;13.50
72509;PMS5003;60532;56.114;40.350;2022-07-12T06:38:46;20.33;19.00;12.00
72509;PMS5003;60532;56.114;40.350;2022-07-12T06:43:46;21.67;19.67;11.00
72509;PMS5003;60532;56.114;40.350;2022-07-12T06:48:47;23.00;21.00;13.00
72509;PMS5003;60532;56.114;40.350;2022-07-12T06:53:48;21.67;20.33;12.00
72509;PMS5003;60532;56.114;40.350;2022-07-12T06:58:49;21.75;21.50;13.00
72509;PMS5003;60532;56.114;40.350;2022-07-12T07:03:49;20.67;19.00;10.00
72509;PMS5003;60532;56.114;40.350;2022-07-12T07:08:50;20.00;20.00;12.33
72509;PMS5003;60532;56.114;40.350;2022-07-12T07:13:50;26.33;23.00;13.33
72509;PMS5003;60532;56.114;40.350;2022-07-12T07:18:51;20.00;20.00;13.33
72509;PMS5003;60532;56.114;40.350;2022-07-12T07:23:52;22.00;21.33;13.00
72509;PMS5003;60532;56.114;40.350;2022-07-12T07:28:52;22.75;22.00;13.75
72509;PMS5003;60532;56.114;40.350;2022-07-12T07:34:11;24.25;24.25;13.50
72509;PMS5003;60532;56.114;40.350;2022-07-12T07:39:12;23.33;22.33;12.00
72509;PMS5003;60532;56.114;40.350;2022-07-12T07:44:13;22.67;21.67;13.67
72509;PMS5003;60532;56.114;40.350;2022-07-12T07:49:14;19.00;19.00;9.67
72509;PMS5003;60532;56.114;40.350;2022-07-12T07:54:14;23.25;20.25;14.00
72509;PMS5003;60532;56.114;40.350;2022-07-12T07:59:15;18.00;18.00;11.00
72509;PMS5003;60532;56.114;40.350;2022-07-12T08:04:15;18.00;16.67;10.33
72509;PMS5003;60532;56.114;40.350;2022-07-12T08:09:17;24.25;21.00;12.25
72509;PMS5003;60532;56.114;40.350;2022-07-12T08:14:18;20.67;19.33;11.00
72509;PMS5003;60532;56.114;40.350;2022-07-12T08:19:19;15.00;13.33;7.67
72509;PMS5003;60532;56.114;40.350;2022-07-12T08:24:19;8.00;7.67;5.33
72509;PMS5003;60532;56.114;40.350;2022-07-12T08:29:20;12.33;12.33;6.67
72509;PMS5003;60532;56.114;40.350;2022-07-12T08:34:21;10.00;10.00;6.67
72509;PMS5003;60532;56.114;40.350;2022-07-12T08:39:21;10.00;10.00;6.00
72509;PMS5003;60532;56.114;40.350;2022-07-12T08:44:22;8.67;8.00;4.00
72509;PMS5003;60532;56.114;40.350;2022-07-12T08:49:22;8.67;8.00;5.00
72509;PMS5003;60532;56.114;40.350;2022-07-12T08:54:23;8.00;8.00;4.67
72509;PMS5003;60532;56.114;40.350;2022-07-12T08:59:23;8.00;7.00;5.00
72509;PMS5003;60532;56.114;40.350;2022-07-12T09:04:25;12.33;10.00;5.00
72509;PMS5003;60532;56.114;40.350;2022-07-12T09:09:27;9.25;8.25;4.75
72509;PMS5003;60532;56.114;40.350;2022-07-12T09:14:29;13.00;9.00;6.00
72509;PMS5003;60532;56.114;40.350;2022-07-12T09:19:31;8.75;6.75;4.50
72509;PMS5003;60532;56.114;40.350;2022-07-12T09:24:32;7.25;7.25;4.50
72509;PMS5003;60532;56.114;40.350;2022-07-12T09:29:33;9.00;9.00;5.67
72509;PMS5003;60532;56.114;40.350;2022-07-12T09:34:46;10.00;9.50;5.75
72509;PMS5003;60532;56.114;40.350;2022-07-12T09:40:14;6.75;6.75;4.00
72509;PMS5003;60532;56.114;40.350;2022-07-12T09:45:14;8.67;8.00;5.00
72509;PMS5003;60532;56.114;40.350;2022-07-12T09:50:15;8.33;8.00;5.00
72509;PMS5003;60532;56.114;40.350;2022-07-12T09:55:16;6.33;6.33;4.00
72509;PMS5003;60532;56.114;40.350;2022-07-12T10:00:18;8.25;8.25;5.00
72509;PMS5003;60532;56.114;40.350;2022-07-12T10:05:18;7.67;7.00;4.33
72509;PMS5003;60532;56.114;40.350;2022-07-12T10:10:20;11.25;9.00;6.00
72509;PMS5003;60532;56.114;40.350;2022-07-12T10:15:21;9.00;9.00;6.00
72509;PMS5003;60532;56.114;40.350;2022-07-12T10:20:25;11.75;11.50;6.50
72509;PMS5003;60532;56.114;40.350;2022-07-12T10:25:33;9.25;7.25;5.75
72509;PMS5003;60532;56.114;40.350;2022-07-12T10:30:44;7.50;7.50;4.25
72509;PMS5003;60532;56.114;40.350;2022-07-12T10:36:01;12.50;12.25;8.00
72509;PMS5003;60532;56.114;40.350;2022-07-12T10:41:16;9.25;9.00;5.25
72509;PMS5003;60532;56.114;40.350;2022-07-12T10:46:17;9.00;9.00;6.00
72509;PMS5003;60532;56.114;40.350;2022-07-12T10:51:21;7.00;7.00;5.25
72509;PMS5003;60532;56.114;40.350;2022-07-12T10:56:22;11.00;11.00;7.67
72509;PMS5003;60532;56.114;40.350;2022-07-12T11:01:29;10.50;10.00;5.25
72509;PMS5003;60532;56.114;40.350;2022-07-12T11:06:33;13.00;11.25;7.00
72509;PMS5003;60532;56.114;40.350;2022-07-12T11:11:55;12.25;11.00;7.00
72509;PMS5003;60532;56.114;40.350;2022-07-12T11:16:55;11.00;11.00;7.25
72509;PMS5003;60532;56.114;40.350;2022-07-12T11:21:57;8.25;8.25;6.00
72509;PMS5003;60532;56.114;40.350;2022-07-12T11:26:58;11.25;11.25;8.25
72509;PMS5003;60532;56.114;40.350;2022-07-12T11:32:03;11.75;11.75;7.00
72509;PMS5003;60532;56.114;40.350;2022-07-12T11:37:05;13.50;13.25;7.50
72509;PMS5003;60532;56.114;40.350;2022-07-12T11:42:06;11.33;10.00;7.00
72509;PMS5003;60532;56.114;40.350;2022-07-12T11:47:07;11.00;11.00;7.00
72509;PMS5003;60532;56.114;40.350;2022-07-12T11:52:08;11.33;11.33;6.00
72509;PMS5003;60532;56.114;40.350;2022-07-12T11:57:08;10.00;9.33;6.67
72509;PMS5003;60532;56.114;40.350;2022-07-12T12:02:10;11.25;7.75;5.50
72509;PMS5003;60532;56.114;40.350;2022-07-12T12:07:11;11.00;11.00;7.25
72509;PMS5003;60532;56.114;40.350;2022-07-12T12:12:16;11.50;11.00;7.00
72509;PMS5003;60532;56.114;40.350;2022-07-12T12:17:16;12.33;11.00;7.00
72509;PMS5003;60532;56.114;40.350;2022-07-12T12:27:48;9.75;9.75;6.50
72509;PMS5003;60532;56.114;40.350;2022-07-12T12:32:50;11.00;11.00;7.50
72509;PMS5003;60532;56.114;40.350;2022-07-12T12:37:56;10.00;10.00;7.00
72509;PMS5003;60532;56.114;40.350;2022-07-12T12:43:10;12.25;12.25;8.50
72509;PMS5003;60532;56.114;40.350;2022-07-12T12:48:17;12.00;12.00;7.75
72509;PMS5003;60532;56.114;40.350;2022-07-12T12:53:19;10.50;10.50;6.25
72509;PMS5003;60532;56.114;40.350;2022-07-12T12:58:20;11.50;11.50;7.00
72509;PMS5003;60532;56.114;40.350;2022-07-12T13:03:21;11.50;11.50;8.50
72509;PMS5003;60532;56.114;40.350;2022-07-12T13:08:24;11.25;10.75;7.00
72509;PMS5003;60532;56.114;40.350;2022-07-12T13:13:25;10.25;10.00;8.25
72509;PMS5003;60532;56.114;40.350;2022-07-12T13:18:26;12.67;11.67;7.67
72509;PMS5003;60532;56.114;40.350;2022-07-12T13:23:26;11.00;11.00;8.33
72509;PMS5003;60532;56.114;40.350;2022-07-12T13:28:27;15.00;14.67;9.00
72509;PMS5003;60532;56.114;40.350;2022-07-12T13:33:28;11.50;11.25;8.25
72509;PMS5003;60532;56.114;40.350;2022-07-12T13:38:28;16.00;13.33;8.00
72509;PMS5003;60532;56.114;40.350;2022-07-12T13:43:29;14.00;12.00;7.67
72509;PMS5003;60532;56.114;40.350;2022-07-12T13:48:29;12.67;12.67;8.00
72509;PMS5003;60532;56.114;40.350;2022-07-12T13:53:30;15.00;14.00;9.67
72509;PMS5003;60532;56.114;40.350;2022-07-12T13:58:32;15.25;15.25;9.50
72509;PMS5003;60532;56.114;40.350;2022-07-12T14:03:32;12.67;11.67;7.67
72509;PMS5003;60532;56.114;40.350;2022-07-12T14:08:33;13.33;11.00;7.00
72509;PMS5003;60532;56.114;40.350;2022-07-12T14:13:33;13.00;11.00;8.00
72509;PMS5003;60532;56.114;40.350;2022-07-12T14:18:34;12.00;12.00;9.00
72509;PMS5003;60532;56.114;40.350;2022-07-12T14:23:35;13.33;13.33;8.67
72509;PMS5003;60532;56.114;40.350;2022-07-12T14:28:36;13.75;11.00;7.50
72509;PMS5003;60532;56.114;40.350;2022-07-12T14:33:37;12.33;12.33;9.00
72509;PMS5003;60532;56.114;40.350;2022-07-12T14:38:37;13.00;13.00;8.00
72509;PMS5003;60532;56.114;40.350;2022-07-12T14:43:38;12.00;8.33;7.00
72509;PMS5003;60532;56.114;40.350;2022-07-12T14:48:38;13.33;12.00;8.33
72509;PMS5003;60532;56.114;40.350;2022-07-12T14:53:39;12.00;10.00;5.33
72509;PMS5003;60532;56.114;40.350;2022-07-12T14:58:40;12.00;9.67;6.33
72509;PMS5003;60532;56.114;40.350;2022-07-12T15:03:40;8.00;8.00;6.00
72509;PMS5003;60532;56.114;40.350;2022-07-12T15:08:41;12.33;10.00;6.00
72509;PMS5003;60532;56.114;40.350;2022-07-12T15:13:41;8.67;7.67;5.67
72509;PMS5003;60532;56.114;40.350;2022-07-12T15:18:42;9.67;9.67;6.00
72509;PMS5003;60532;56.114;40.350;2022-07-12T15:23:43;6.33;6.33;5.00
72509;PMS5003;60532;56.114;40.350;2022-07-12T15:28:54;8.00;8.00;5.00
72509;PMS5003;60532;56.114;40.350;2022-07-12T15:33:55;10.00;8.50;5.50
72509;PMS5003;60532;56.114;40.350;2022-07-12T15:38:56;7.00;7.00;4.25
72509;PMS5003;60532;56.114;40.350;2022-07-12T15:43:57;9.00;7.00;4.67
72509;PMS5003;60532;56.114;40.350;2022-07-12T15:48:59;7.00;7.00;5.00
72509;PMS5003;60532;56.114;40.350;2022-07-12T15:53:59;6.33;6.33;4.67
72509;PMS5003;60532;56.114;40.350;2022-07-12T15:59:00;8.00;7.33;4.33
72509;PMS5003;60532;56.114;40.350;2022-07-12T16:04:01;8.00;6.67;4.00
72509;PMS5003;60532;56.114;40.350;2022-07-12T16:09:02;6.67;6.67;4.00
72509;PMS5003;60532;56.114;40.350;2022-07-12T16:14:02;7.75;6.25;5.00
72509;PMS5003;60532;56.114;40.350;2022-07-12T16:19:03;8.33;8.33;7.00
72509;PMS5003;60532;56.114;40.350;2022-07-12T16:24:05;9.00;9.00;5.00
72509;PMS5003;60532;56.114;40.350;2022-07-12T16:29:06;9.67;8.67;6.00
72509;PMS5003;60532;56.114;40.350;2022-07-12T16:34:06;7.67;7.67;5.00
72509;PMS5003;60532;56.114;40.350;2022-07-12T16:39:07;8.00;8.00;5.33
72509;PMS5003;60532;56.114;40.350;2022-07-12T16:44:08;8.00;8.00;5.67
72509;PMS5003;60532;56.114;40.350;2022-07-12T16:49:09;8.00;7.75;5.50
72509;PMS5003;60532;56.114;40.350;2022-07-12T16:54:09;6.00;6.00;3.67
72509;PMS5003;60532;56.114;40.350;2022-07-12T16:59:10;7.00;7.00;5.00
72509;PMS5003;60532;56.114;40.350;2022-07-12T17:04:10;6.00;6.00;4.00
72509;PMS5003;60532;56.114;40.350;2022-07-12T17:09:12;4.75;4.50;3.75
72509;PMS5003;60532;56.114;40.350;2022-07-12T17:14:13;6.67;6.33;4.00
72509;PMS5003;60532;56.114;40.350;2022-07-12T17:19:13;10.33;9.00;6.00
72509;PMS5003;60532;56.114;40.350;2022-07-12T17:24:15;6.50;6.50;5.25
72509;PMS5003;60532;56.114;40.350;2022-07-12T17:29:16;10.67;9.00;6.00
72509;PMS5003;60532;56.114;40.350;2022-07-12T17:34:16;9.00;9.00;5.33
72509;PMS5003;60532;56.114;40.350;2022-07-12T17:39:17;9.00;9.00;6.33
72509;PMS5003;60532;56.114;40.350;2022-07-12T17:44:18;11.33;9.67;6.00
72509;PMS5003;60532;56.114;40.350;2022-07-12T17:49:22;10.75;10.75;6.00
72509;PMS5003;60532;56.114;40.350;2022-07-12T17:54:22;7.00;7.00;3.00
72509;PMS5003;60532;56.114;40.350;2022-07-12T17:59:26;11.25;10.00;6.50
72509;PMS5003;60532;56.114;40.350;2022-07-12T18:04:26;7.33;7.33;5.33
72509;PMS5003;60532;56.114;40.350;2022-07-12T18:09:27;7.00;7.00;5.00
72509;PMS5003;60532;56.114;40.350;2022-07-12T18:14:27;7.00;7.00;5.00
72509;PMS5003;60532;56.114;40.350;2022-07-12T18:19:43;8.75;8.25;5.00
72509;PMS5003;60532;56.114;40.350;2022-07-12T18:24:44;7.00;5.75;3.00
72509;PMS5003;60532;56.114;40.350;2022-07-12T18:29:45;10.50;9.00;5.00
72509;PMS5003;60532;56.114;40.350;2022-07-12T18:34:46;5.67;5.33;3.67
72509;PMS5003;60532;56.114;40.350;2022-07-12T18:39:46;7.00;7.00;4.00
72509;PMS5003;60532;56.114;40.350;2022-07-12T18:44:47;6.00;6.00;3.67
72509;PMS5003;60532;56.114;40.350;2022-07-12T18:49:47;5.33;5.00;3.00
72509;PMS5003;60532;56.114;40.350;2022-07-12T18:54:48;5.33;5.33;3.00
72509;PMS5003;60532;56.114;40.350;2022-07-12T18:59:49;6.00;5.33;4.00
72509;PMS5003;60532;56.114;40.350;2022-07-12T19:04:49;5.33;5.33;3.00
72509;PMS5003;60532;56.114;40.350;2022-07-12T19:09:50;7.33;6.00;4.00
72509;PMS5003;60532;56.114;40.350;2022-07-12T19:14:50;6.67;5.33;3.00
72509;PMS5003;60532;56.114;40.350;2022-07-12T19:19:51;6.00;6.00;3.33
72509;PMS5003;60532;56.114;40.350;2022-07-12T19:24:52;5.67;5.67;3.00
72509;PMS5003;60532;56.114;40.350;2022-07-12T19:29:52;4.33;4.33;3.00
72509;PMS5003;60532;56.114;40.350;2022-07-12T19:34:53;7.33;5.67;3.67
72509;PMS5003;60532;56.114;40.350;2022-07-12T19:39:54;4.50;4.50;3.00
72509;PMS5003;60532;56.114;40.350;2022-07-12T19:44:55;6.33;4.33;1.67
72509;PMS5003;60532;56.114;40.350;2022-07-12T19:49:55;4.33;4.33;3.00
72509;PMS5003;60532;56.114;40.350;2022-07-12T19:54:56;4.33;4.33;2.33
72509;PMS5003;60532;56.114;40.350;2022-07-12T19:59:57;5.33;5.33;3.00
72509;PMS5003;60532;56.114;40.350;2022-07-12T20:04:57;8.33;5.33;4.00
72509;PMS5003;60532;56.114;40.350;2022-07-12T20:09:58;4.00;2.67;2.00
72509;PMS5003;60532;56.114;40.350;2022-07-12T20:14:58;5.00;5.00;3.00
72509;PMS5003;60532;56.114;40.350;2022-07-12T20:19:59;5.33;5.33;4.00
72509;PMS5003;60532;56.114;40.350;2022-07-12T20:25:00;4.67;4.67;2.67
72509;PMS5003;60532;56.114;40.350;2022-07-12T20:30:00;5.33;5.33;3.33
72509;PMS5003;60532;56.114;40.350;2022-07-12T20:35:01;6.33;6.33;4.00
72509;PMS5003;60532;56.114;40.350;2022-07-12T20:40:02;7.00;7.00;3.75
72509;PMS5003;60532;56.114;40.350;2022-07-12T20:45:02;6.00;6.00;3.67
72509;PMS5003;60532;56.114;40.350;2022-07-12T20:50:03;7.00;7.00;4.33
72509;PMS5003;60532;56.114;40.350;2022-07-12T20:55:04;4.00;4.00;3.00
72509;PMS5003;60532;56.114;40.350;2022-07-12T21:00:05;1.67;1.00;0.00
72509;PMS5003;60532;56.114;40.350;2022-07-12T21:05:07;5.50;5.00;3.75
72509;PMS5003;60532;56.114;40.350;2022-07-12T21:10:08;4.75;4.75;3.25
72509;PMS5003;60532;56.114;40.350;2022-07-12T21:15:09;6.33;6.33;4.33
72509;PMS5003;60532;56.114;40.350;2022-07-12T21:20:10;7.00;6.75;4.50
72509;PMS5003;60532;56.114;40.350;2022-07-12T21:25:11;5.75;5.50;4.00
72509;PMS5003;60532;56.114;40.350;2022-07-12T21:30:12;6.00;6.00;4.00
72509;PMS5003;60532;56.114;40.350;2022-07-12T21:35:13;10.00;7.00;4.00
72509;PMS5003;60532;56.114;40.350;2022-07-12T21:40:14;7.00;7.00;4.67
72509;PMS5003;60532;56.114;40.350;2022-07-12T21:45:14;6.67;6.67;4.33
72509;PMS5003;60532;56.114;40.350;2022-07-12T21:50:16;6.25;6.25;4.50
72509;PMS5003;60532;56.114;40.350;2022-07-12T21:55:17;5.33;5.33;3.67
72509;PMS5003;60532;56.114;40.350;2022-07-12T22:00:18;5.75;5.25;4.00
72509;PMS5003;60532;56.114;40.350;2022-07-12T22:05:19;7.50;6.00;4.25
72509;PMS5003;60532;56.114;40.350;2022-07-12T22:10:21;4.75;4.75;4.00
72509;PMS5003;60532;56.114;40.350;2022-07-12T22:15:22;7.00;7.00;5.00
72509;PMS5003;60532;56.114;40.350;2022-07-12T22:20:23;7.00;7.00;4.00
72509;PMS5003;60532;56.114;40.350;2022-07-12T22:25:24;7.67;6.33;4.00
72509;PMS5003;60532;56.114;40.350;2022-07-12T22:30:24;8.00;8.00;4.00
72509;PMS5003;60532;56.114;40.350;2022-07-12T22:35:25;7.00;7.00;5.00
72509;PMS5003;60532;56.114;40.350;2022-07-12T22:40:26;7.00;7.00;3.33
72509;PMS5003;60532;56.114;40.350;2022-07-12T22:45:26;7.00;7.00;4.00
72509;PMS5003;60532;56.114;40.350;2022-07-12T22:50:27;5.67;5.33;3.33
72509;PMS5003;60532;56.114;40.350;2022-07-12T22:55:46;7.25;7.25;4.25
72509;PMS5003;60532;56.114;40.350;2022-07-12T23:00:47;7.00;7.00;5.00
72509;PMS5003;60532;56.114;40.350;2022-07-12T23:05:47;7.67;7.67;5.00
72509;PMS5003;60532;56.114;40.350;2022-07-12T23:10:48;7.33;7.33;4.00
72509;PMS5003;60532;56.114;40.350;2022-07-12T23:15:48;7.00;7.00;5.00
72509;PMS5003;60532;56.114;40.350;2022-07-12T23:20:49;7.33;6.33;4.33
72509;PMS5003;60532;56.114;40.350;2022-07-12T23:25:49;7.67;6.67;4.67
72509;PMS5003;60532;56.114;40.350;2022-07-12T23:30:50;6.67;6.67;3.67
72509;PMS5003;60532;56.114;40.350;2022-07-12T23:35:50;8.67;8.67;6.00
72509;PMS5003;60532;56.114;40.350;2022-07-12T23:40:51;5.00;5.00;4.00
72509;PMS5003;60532;56.114;40.350;2022-07-12T23:45:52;6.33;6.33;4.00
72509;PMS5003;60532;56.114;40.350;2022-07-12T23:50:52;7.00;7.00;5.00
72509;PMS5003;60532;56.114;40.350;2022-07-12T23:55:53;8.33;7.67;4.67
